createdAt,value
2018-07-28T21:15:47.430Z,29.05
2018-07-28T21:18:17.102Z,29.03
2018-07-28T21:20:46.378Z,28.85
2018-07-28T21:23:15.807Z,28.84
2018-07-28T21:25:45.062Z,28.85
2018-07-28T21:28:14.251Z,28.82
2018-07-28T21:30:43.466Z,28.86
2018-07-28T21:33:12.654Z,29.11
2018-07-28T21:35:41.702Z,29.16
2018-07-28T21:38:10.834Z,29.14
2018-07-28T21:40:40.035Z,29.13
2018-07-28T21:43:09.152Z,29.19
2018-07-28T21:45:38.264Z,29.19
2018-07-28T21:48:07.408Z,29.20
2018-07-28T21:50:36.542Z,29.22
2018-07-28T21:53:06.142Z,29.24
2018-07-28T21:55:35.255Z,29.24
2018-07-28T21:58:04.426Z,29.23
2018-07-28T22:00:39.186Z,29.29
2018-07-28T22:03:08.671Z,29.24
2018-07-28T22:05:37.954Z,29.28
2018-07-28T22:08:07.240Z,29.28
2018-07-28T22:10:36.398Z,29.28
2018-07-28T22:13:05.730Z,29.29
2018-07-28T22:15:34.641Z,29.34
2018-07-28T22:18:03.783Z,29.30
2018-07-28T22:20:32.900Z,29.22
2018-07-28T22:23:02.345Z,29.21
2018-07-28T22:25:31.451Z,29.17
2018-07-28T22:28:00.699Z,29.18
2018-07-28T22:30:29.906Z,29.14
2018-07-28T22:32:58.785Z,29.19
2018-07-28T22:35:28.128Z,29.14
2018-07-28T22:37:57.231Z,29.17
2018-07-28T22:40:26.698Z,29.19
2018-07-28T22:42:55.804Z,29.14
2018-07-28T22:45:25.172Z,29.11
2018-07-28T22:47:54.374Z,29.14
2018-07-28T22:50:23.553Z,29.13
2018-07-28T22:52:52.646Z,29.10
2018-07-28T22:55:21.965Z,29.09
2018-07-28T22:57:51.174Z,29.11
2018-07-28T23:00:20.375Z,29.07
2018-07-28T23:02:49.500Z,29.07
2018-07-28T23:05:18.610Z,29.04
2018-07-28T23:07:47.835Z,29.05
2018-07-28T23:10:17.017Z,29.03
2018-07-28T23:12:46.288Z,29.02
2018-07-28T23:15:15.426Z,29.04
2018-07-28T23:17:44.750Z,29.00
2018-07-28T23:20:14.031Z,29.02
2018-07-28T23:22:43.157Z,29.01
2018-07-28T23:25:12.628Z,29.02
2018-07-28T23:27:41.883Z,28.98
2018-07-28T23:30:11.974Z,28.98
2018-07-28T23:32:41.167Z,28.96
2018-07-28T23:35:10.471Z,28.93
2018-07-28T23:37:39.571Z,28.91
2018-07-28T23:40:08.818Z,28.92
2018-07-28T23:42:37.929Z,28.90
2018-07-28T23:45:07.198Z,28.89
2018-07-28T23:47:36.468Z,28.89
2018-07-28T23:50:05.865Z,28.88
2018-07-28T23:52:35.006Z,28.89
2018-07-28T23:55:04.173Z,28.86
2018-07-28T23:57:33.292Z,28.84
